Latest Coastal Weather Observations for Arlington Reef

IDQ60701

Issued at 6:51 pm EST Tuesday 14 August 2018 (issued every 10 minutes, with the page automatically refreshed every 10 minutes)

About coastal observations | Map of coastal stations | Coastal observations for QLD | Marine services | Other Formats
Station Details ID: 200879 Name: ARLINGTON REEF Lat: -16.72 Lon: 146.11 Height: 0.0 m
Data from the previous 72 hours. | See also: Recent months at Arlington Reef
Date/Time
EST
Wind Sea
Height
m
Swell Vis
km
Cloud Weather Temp
°C
Press
hPa
Rain since
9am
mm
Dir  Spd
kts
Gust
kts
Height
m
Period
s
Dir
14/06:30pm SSE 22 27 - - - - - - - - 1018.2 -
14/06:00pm S 21 24 - - - - - - - - 1018.2 -
14/05:30pm SSE 21 27 - - - - - - - - 1018.0 -
14/05:00pm SSE 21 25 - - - - - - - - 1018.0 -
14/04:30pm SSE 21 28 - - - - - - - - 1018.0 -
14/04:00pm SSE 20 26 - - - - - - - - 1017.8 -
14/03:30pm SSE 20 24 - - - - - - - - 1017.9 -
14/03:00pm SSE 19 23 - - - - - - - - 1018.2 -
14/02:30pm SSE 22 25 - - - - - - - - 1018.5 -
14/02:00pm SSE 21 25 - - - - - - - - 1018.7 -
14/01:30pm SSE 22 27 - - - - - - - - 1019.0 -
14/01:00pm SSE 22 27 - - - - - - - - 1019.5 -
14/12:30pm SSE 23 27 - - - - - - - - 1019.9 -
14/12:00pm SSE 23 27 - - - - - - - - 1020.2 -
14/11:30am SSE 22 27 - - - - - - - - 1020.5 -
14/11:00am SSE 23 28 - - - - - - - - 1020.9 -
14/10:30am SSE 23 28 - - - - - - - - 1020.9 -
14/10:00am SSE 23 27 - - - - - - - - 1021.0 -
14/09:30am SSE 23 27 - - - - - - - - 1021.0 -
14/09:00am SSE 23 28 - - - - - - - - 1020.8 -
14/08:30am SSE 24 28 - - - - - - - - 1020.3 -
14/08:00am SSE 24 29 - - - - - - - - 1020.0 -
14/07:30am SE 24 29 - - - - - - - - 1019.5 -
14/07:00am SSE 27 33 - - - - - - - - 1019.1 -
14/06:30am SE 23 28 - - - - - - - - 1019.0 -
14/06:00am SE 24 28 - - - - - - - - 1018.6 -
14/05:30am SE 23 28 - - - - - - - - 1018.3 -
14/05:00am SE 23 27 - - - - - - - - 1018.3 -
14/04:30am SSE 22 26 - - - - - - - - 1018.3 -
14/04:00am SSE 22 26 - - - - - - - - 1018.2 -
14/03:30am SSE 20 24 - - - - - - - - 1018.4 -
14/03:00am SSE 20 24 - - - - - - - - 1018.5 -
14/02:30am SSE 18 23 - - - - - - - - 1018.7 -
14/02:00am SSE 19 21 - - - - - - - - 1018.9 -
14/01:30am SE 19 22 - - - - - - - - 1019.1 -
14/01:00am SE 17 19 - - - - - - - - 1019.4 -
14/12:30am SE 17 19 - - - - - - - - 1019.6 -
14/12:00am SE 18 20 - - - - - - - - 1019.7 -
 
Date/Time
EST
Wind Sea
Height
m
Swell Vis
km
Cloud Weather Temp
°C
Press
hPa
Rain since
9am
mm
Dir  Spd
kts
Gust
kts
Height
m
Period
s
Dir
13/11:30pm SE 18 21 - - - - - - - - 1019.7 -
13/11:00pm SE 19 21 - - - - - - - - 1019.6 -
13/10:30pm SE 19 21 - - - - - - - - 1019.5 -
13/10:00pm SSE 20 23 - - - - - - - - 1019.4 -
13/09:30pm SE 19 22 - - - - - - - - 1019.4 -
13/09:00pm SSE 19 23 - - - - - - - - 1019.4 -
13/08:30pm SE 19 22 - - - - - - - - 1019.3 -
13/08:00pm SSE 19 22 - - - - - - - - 1019.1 -
13/07:30pm SE 21 24 - - - - - - - - 1018.9 -
13/07:00pm SSE 19 23 - - - - - - - - 1018.6 -
13/06:30pm SSE 22 25 - - - - - - - - 1018.1 -
13/06:00pm SSE 24 29 - - - - - - - - 1017.7 -
13/05:30pm SSE 21 25 - - - - - - - - 1017.7 -
13/05:00pm SSE 21 24 - - - - - - - - 1017.3 -
13/04:30pm SSE 22 26 - - - - - - - - 1017.0 -
13/04:00pm SSE 24 28 - - - - - - - - 1017.0 -
13/03:30pm S 22 26 - - - - - - - - 1016.8 -
13/03:00pm SSE 22 26 - - - - - - - - 1017.0 -
13/02:30pm SSE 22 26 - - - - - - - - 1017.1 -
13/02:00pm S 21 26 - - - - - - - - 1017.5 -
13/01:30pm S 21 25 - - - - - - - - 1017.7 -
13/01:00pm S 21 24 - - - - - - - - 1017.9 -
13/12:30pm S 21 24 - - - - - - - - 1018.2 -
13/12:00pm S 21 25 - - - - - - - - 1018.2 -
13/11:30am S 21 24 - - - - - - - - 1018.4 -
13/11:00am S 20 23 - - - - - - - - 1018.6 -
13/10:30am S 19 24 - - - - - - - - 1018.8 -
13/10:00am S 18 21 - - - - - - - - 1018.7 -
13/09:30am S 16 19 - - - - - - - - 1018.5 -
13/09:00am SSE 17 21 - - - - - - - - 1018.2 -
13/08:30am SSE 18 22 - - - - - - - - 1018.0 -
13/08:00am SSE 17 20 - - - - - - - - 1017.5 -
13/07:30am SSE 16 20 - - - - - - - - 1017.1 -
13/07:00am SSE 15 17 - - - - - - - - 1016.7 -
13/06:30am S 15 17 - - - - - - - - 1016.4 -
13/06:00am S 14 16 - - - - - - - - 1016.0 -
13/05:30am SSE 14 17 - - - - - - - - 1015.6 -
13/05:00am SSE 13 16 - - - - - - - - 1015.3 -
13/04:30am SSE 13 16 - - - - - - - - 1015.2 -
13/04:00am SSE 11 15 - - - - - - - - 1015.2 -
13/03:30am SSE 10 13 - - - - - - - - 1015.3 -
13/03:00am SE 12 14 - - - - - - - - 1015.3 -
13/02:30am SSE 11 13 - - - - - - - - 1015.3 -
13/02:00am SSE 11 14 - - - - - - - - 1015.5 -
13/01:30am SSE 10 12 - - - - - - - - 1015.7 -
13/01:00am SSE 9 11 - - - - - - - - 1016.1 -
13/12:30am SSE 9 11 - - - - - - - - 1016.3 -
13/12:00am SSE 8 10 - - - - - - - - 1016.6 -
 
Date/Time
EST
Wind Sea
Height
m
Swell Vis
km
Cloud Weather Temp
°C
Press
hPa
Rain since
9am
mm
Dir  Spd
kts
Gust
kts
Height
m
Period
s
Dir
12/11:30pm S 8 10 - - - - - - - - 1016.6 -
12/11:00pm S 7 9 - - - - - - - - 1016.9 -
12/10:30pm SSE 8 9 - - - - - - - - 1016.9 -
12/10:00pm SSE 8 9 - - - - - - - - 1017.0 -
12/09:30pm S 8 10 - - - - - - - - 1017.0 -
12/09:00pm SSE 7 9 - - - - - - - - 1017.1 -
12/08:30pm SSE 8 10 - - - - - - - - 1017.0 -
12/08:00pm SSE 8 9 - - - - - - - - 1016.8 -
12/07:30pm SE 10 13 - - - - - - - - 1016.4 -
12/07:00pm SE 10 12 - - - - - - - - 1016.0 -
12/06:30pm SE 11 13 - - - - - - - - 1015.9 -
12/06:00pm SE 11 13 - - - - - - - - 1015.8 -
12/05:30pm SE 11 14 - - - - - - - - 1015.7 -
12/05:00pm SE 11 12 - - - - - - - - 1015.6 -
12/04:30pm SSE 9 11 - - - - - - - - 1015.4 -
12/04:00pm SSE 8 9 - - - - - - - - 1015.3 -
12/03:30pm SSE 9 12 - - - - - - - - 1015.2 -
12/03:00pm S 9 12 - - - - - - - - 1015.3 -
12/02:30pm S 9 11 - - - - - - - - 1015.6 -
12/02:00pm S 10 12 - - - - - - - - 1015.7 -
12/01:30pm S 9 11 - - - - - - - - 1015.9 -
12/01:00pm S 8 11 - - - - - - - - 1016.2 -
12/12:30pm S 8 10 - - - - - - - - 1016.6 -
12/12:00pm S 8 10 - - - - - - - - 1017.0 -
12/11:30am S 8 10 - - - - - - - - 1017.3 -
12/11:00am S 8 9 - - - - - - - - 1017.5 -
12/10:30am S 7 9 - - - - - - - - 1017.7 -
12/10:00am S 7 9 - - - - - - - - 1017.6 -
12/09:30am S 7 9 - - - - - - - - 1017.4 -
12/09:00am S 6 8 - - - - - - - - 1017.2 -
12/08:30am SSE 7 8 - - - - - - - - 1016.9 -
12/08:00am S 7 9 - - - - - - - - 1016.6 -
12/07:30am S 6 8 - - - - - - - - 1016.5 -
12/07:00am S 7 9 - - - - - - - - 1016.1 -
12/06:30am S 8 9 - - - - - - - - 1015.6 -
12/06:00am S 8 9 - - - - - - - - 1015.2 -
12/05:30am S 7 8 - - - - - - - - 1014.8 -
12/05:00am S 8 11 - - - - - - - - 1014.6 -
12/04:30am SSE 7 9 - - - - - - - - 1014.5 -
12/04:00am SE 8 9 - - - - - - - - 1014.4 -
12/03:30am SE 7 8 - - - - - - - - 1014.6 -
12/03:00am SE 6 8 - - - - - - - - 1014.9 -
12/02:30am SSE 6 7 - - - - - - - - 1014.9 -
12/02:00am SE 6 8 - - - - - - - - 1015.2 -
12/01:30am ESE 7 8 - - - - - - - - 1015.4 -
12/01:00am SE 7 9 - - - - - - - - 1015.8 -
12/12:30am SSE 7 9 - - - - - - - - 1016.2 -
12/12:00am SE 6 9 - - - - - - - - 1016.2 -
 
Date/Time
EST
Wind Sea
Height
m
Swell Vis
km
Cloud Weather Temp
°C
Press
hPa
Rain since
9am
mm
Dir  Spd
kts
Gust
kts
Height
m
Period
s
Dir
11/11:30pm ESE 7 9 - - - - - - - - 1016.3 -
11/11:00pm ESE 7 9 - - - - - - - - 1016.4 -
11/10:30pm SE 8 9 - - - - - - - - 1016.5 -
11/10:00pm SE 8 10 - - - - - - - - 1016.4 -
11/09:30pm SE 9 11 - - - - - - - - 1016.4 -
11/09:00pm SE 9 10 - - - - - - - - 1016.3 -
11/08:30pm SE 9 10 - - - - - - - - 1016.1 -
11/08:00pm SE 8 11 - - - - - - - - 1015.9 -
11/07:30pm SE 9 11 - - - - - - - - 1015.4 -
11/07:00pm SE 10 12 - - - - - - - - 1015.2 -

Other Formats:

Comma delimited format used in spreadsheet applications
http://www.bom.gov.au/fwo/IDQ60701/IDQ60701.94284.axf

JavaScript Object Notation format (JSON) in row-major order
http://www.bom.gov.au/fwo/IDQ60701/IDQ60701.94284.json